createdAt,value
2019-04-05T00:00:35.864Z,4.60
2019-04-05T00:03:05.810Z,4.50
2019-04-05T00:05:36.230Z,4.50
2019-04-05T00:08:06.170Z,4.50
2019-04-05T00:10:36.534Z,4.50
2019-04-05T00:13:06.773Z,4.40
2019-04-05T00:15:38.136Z,4.40
2019-04-05T00:18:08.529Z,4.40
2019-04-05T00:20:38.378Z,4.30
2019-04-05T00:23:08.712Z,4.40
2019-04-05T00:25:38.774Z,4.30
2019-04-05T00:28:08.620Z,4.20
2019-04-05T00:30:38.672Z,4.20
2019-04-05T00:33:08.470Z,4.20
2019-04-05T00:35:38.442Z,4.20
2019-04-05T00:38:08.286Z,4.30
2019-04-05T00:40:38.178Z,4.20
2019-04-05T00:43:08.236Z,4.20
2019-04-05T00:45:38.159Z,4.20
2019-04-05T00:48:08.044Z,4.20
2019-04-05T00:50:38.001Z,4.20
2019-04-05T00:53:07.943Z,4.20
2019-04-05T00:55:38.367Z,4.20
2019-04-05T00:58:08.592Z,4.20
2019-04-05T01:00:38.788Z,4.30
2019-04-05T01:03:08.608Z,4.30
2019-04-05T01:05:38.757Z,4.30
2019-04-05T01:08:08.627Z,4.30
2019-04-05T01:10:38.578Z,4.30
2019-04-05T01:13:08.389Z,4.30
2019-04-05T01:15:41.138Z,4.30
2019-04-05T01:18:10.259Z,4.30
2019-04-05T01:20:42.813Z,4.30
2019-04-05T01:23:12.987Z,4.20
2019-04-05T01:25:43.270Z,4.30
2019-04-05T01:28:13.266Z,4.30
2019-04-05T01:30:43.090Z,4.20
2019-04-05T01:33:13.268Z,4.30
2019-04-05T01:35:43.596Z,4.30
2019-04-05T01:38:14.157Z,4.20
2019-04-05T01:40:47.050Z,4.20
2019-04-05T01:43:17.700Z,4.30
2019-04-05T01:45:53.915Z,4.30
2019-04-05T01:48:20.167Z,4.30
2019-04-05T01:50:50.911Z,4.30
2019-04-05T01:53:21.080Z,4.30
2019-04-05T01:55:51.372Z,4.30
2019-04-05T01:58:21.175Z,4.30
2019-04-05T02:00:50.979Z,4.20
2019-04-05T02:03:21.054Z,4.20
2019-04-05T02:05:51.383Z,4.20
2019-04-05T02:08:21.611Z,4.20
2019-04-05T02:10:51.609Z,4.20
2019-04-05T02:13:21.664Z,4.20
2019-04-05T02:15:51.578Z,4.30
2019-04-05T02:18:21.382Z,4.20
2019-04-05T02:20:51.811Z,4.30
2019-04-05T02:23:21.943Z,4.20
2019-04-05T02:25:52.659Z,4.20
2019-04-05T02:28:25.383Z,4.20
2019-04-05T02:30:54.862Z,4.30
2019-04-05T02:33:25.643Z,4.30
2019-04-05T02:35:55.711Z,4.20
2019-04-05T02:38:25.519Z,4.20
2019-04-05T02:40:58.826Z,4.30
2019-04-05T02:43:32.380Z,4.30
2019-04-05T02:46:03.295Z,4.20
2019-04-05T02:48:36.369Z,4.20
2019-04-05T02:51:07.392Z,4.20
2019-04-05T02:53:38.955Z,4.30
2019-04-05T02:56:10.009Z,4.30
2019-04-05T02:58:40.827Z,4.30
2019-04-05T03:01:11.812Z,4.30
2019-04-05T03:03:42.411Z,4.30
2019-04-05T03:06:13.679Z,4.30
2019-04-05T03:08:44.193Z,4.40
2019-04-05T03:11:20.280Z,4.30
2019-04-05T03:13:54.650Z,4.30
2019-04-05T03:16:40.940Z,4.30
2019-04-05T03:19:26.097Z,4.20
2019-04-05T03:22:00.715Z,4.30
2019-04-05T03:24:33.192Z,4.20
2019-04-05T03:27:17.473Z,4.30
2019-04-05T03:29:47.483Z,4.30
2019-04-05T03:32:17.444Z,4.20
2019-04-05T03:34:47.936Z,4.30
2019-04-05T03:37:18.369Z,4.20
2019-04-05T03:39:48.995Z,4.20
2019-04-05T03:42:20.525Z,4.30
2019-04-05T03:44:50.529Z,4.20
2019-04-05T03:47:20.756Z,4.20
2019-04-05T03:49:51.151Z,4.30
2019-04-05T03:52:21.646Z,4.20
2019-04-05T03:54:52.045Z,4.30
2019-04-05T03:57:22.049Z,4.30
2019-04-05T03:59:52.346Z,4.40
2019-04-05T04:02:23.642Z,4.30
2019-04-05T04:04:54.951Z,4.40
2019-04-05T04:07:25.651Z,4.40
2019-04-05T04:09:55.456Z,4.40
2019-04-05T04:12:25.825Z,4.30
2019-04-05T04:14:57.693Z,4.30
2019-04-05T04:17:27.507Z,4.30
2019-04-05T04:19:58.142Z,4.30
2019-04-05T04:22:31.511Z,4.30
2019-04-05T04:25:01.591Z,4.30
2019-04-05T04:27:31.563Z,4.30
2019-04-05T04:30:02.026Z,4.30
2019-04-05T04:32:32.416Z,4.30
2019-04-05T04:35:06.072Z,4.30
2019-04-05T04:37:36.345Z,4.20
2019-04-05T04:40:07.497Z,4.30
2019-04-05T04:42:37.858Z,4.30
2019-04-05T04:45:12.607Z,4.20
2019-04-05T04:47:39.569Z,4.20
2019-04-05T04:50:12.285Z,4.20
2019-04-05T04:52:42.614Z,4.20
2019-04-05T04:55:12.635Z,4.20
2019-04-05T04:57:44.158Z,4.30
2019-04-05T05:00:15.343Z,4.20
2019-04-05T05:02:45.795Z,4.20
2019-04-05T05:05:16.937Z,4.20
2019-04-05T05:07:47.257Z,4.20
2019-04-05T05:10:18.387Z,4.20
2019-04-05T05:12:57.443Z,4.30
2019-04-05T05:15:27.562Z,4.30
2019-04-05T05:17:58.784Z,4.20
2019-04-05T05:20:29.405Z,4.30
2019-04-05T05:22:59.607Z,4.30
2019-04-05T05:25:29.555Z,4.30
2019-04-05T05:27:59.662Z,4.20
2019-04-05T05:30:30.146Z,4.20
2019-04-05T05:33:00.549Z,4.10
2019-04-05T05:35:30.521Z,4.20
2019-04-05T05:38:00.294Z,4.20
2019-04-05T05:40:35.082Z,4.20
2019-04-05T05:43:02.800Z,4.20
2019-04-05T05:45:32.900Z,4.20
2019-04-05T05:48:02.834Z,4.20
2019-04-05T05:50:32.640Z,4.20
2019-04-05T05:53:02.552Z,4.20
2019-04-05T05:55:32.363Z,4.20
2019-04-05T05:58:02.574Z,4.20
2019-04-05T06:00:32.784Z,4.20
2019-04-05T06:03:02.627Z,4.20
2019-04-05T06:05:33.046Z,4.20
2019-04-05T06:08:03.131Z,4.30
2019-04-05T06:10:32.982Z,4.30
2019-04-05T06:13:06.820Z,4.30
2019-04-05T06:15:37.406Z,4.30
2019-04-05T06:18:06.198Z,4.30
2019-04-05T06:20:36.342Z,4.40
2019-04-05T06:23:06.522Z,4.40
2019-04-05T06:25:36.484Z,4.30
2019-04-05T06:28:06.746Z,4.20
2019-04-05T06:30:36.546Z,4.20
2019-04-05T06:33:06.842Z,4.20
2019-04-05T06:35:37.055Z,4.20
2019-04-05T06:38:06.866Z,4.10
2019-04-05T06:40:40.930Z,4.10
2019-04-05T06:43:09.503Z,4.10
2019-04-05T06:45:40.389Z,4.10
2019-04-05T06:48:19.023Z,4.10
2019-04-05T06:50:41.722Z,4.10
2019-04-05T06:53:12.132Z,4.10
2019-04-05T06:55:45.481Z,4.10
2019-04-05T06:58:20.526Z,4.10
2019-04-05T07:00:57.284Z,4.20
2019-04-05T07:03:23.734Z,4.10
2019-04-05T07:05:53.765Z,4.20
2019-04-05T07:08:23.600Z,4.20
2019-04-05T07:10:54.844Z,4.10
2019-04-05T07:13:27.311Z,4.20
2019-04-05T07:15:56.523Z,4.20
2019-04-05T07:18:35.723Z,4.20
2019-04-05T07:20:58.792Z,4.20
2019-04-05T07:23:29.435Z,4.30
2019-04-05T07:26:00.335Z,4.30
2019-04-05T07:28:30.672Z,4.40
2019-04-05T07:31:00.472Z,4.40
2019-04-05T07:33:31.441Z,4.50
2019-04-05T07:36:03.479Z,4.50
2019-04-05T07:38:33.270Z,4.60
2019-04-05T07:41:03.366Z,4.60
2019-04-05T07:43:33.670Z,4.60
2019-04-05T07:46:03.807Z,4.60
2019-04-05T07:48:44.047Z,4.60
2019-04-05T07:51:05.990Z,4.60
2019-04-05T07:53:36.296Z,4.60
2019-04-05T07:56:06.185Z,4.70
2019-04-05T07:58:36.817Z,4.60
2019-04-05T08:01:07.329Z,4.70
2019-04-05T08:03:37.290Z,4.70
2019-04-05T08:06:07.535Z,4.80
2019-04-05T08:08:47.712Z,4.80
2019-04-05T08:11:18.540Z,4.80
2019-04-05T08:13:50.759Z,4.90
2019-04-05T08:16:21.126Z,4.90
2019-04-05T08:18:57.661Z,4.90
2019-04-05T08:21:22.347Z,4.90
2019-04-05T08:23:52.107Z,4.90
2019-04-05T08:26:22.496Z,4.80
2019-04-05T08:28:54.086Z,4.90
2019-04-05T08:31:24.989Z,4.80
2019-04-05T08:33:55.059Z,4.90
2019-04-05T08:36:25.602Z,4.90
2019-04-05T08:38:55.866Z,4.90
2019-04-05T08:41:25.638Z,4.90
2019-04-05T08:43:56.128Z,4.90
2019-04-05T08:46:25.898Z,4.90
2019-04-05T08:49:09.666Z,5.00
2019-04-05T08:51:29.148Z,5.00
2019-04-05T08:53:58.948Z,5.00
2019-04-05T08:56:29.314Z,5.00
2019-04-05T08:58:59.854Z,4.90
2019-04-05T09:01:29.895Z,4.90
2019-04-05T09:03:59.697Z,4.90
2019-04-05T09:06:29.938Z,4.90
2019-04-05T09:08:59.844Z,4.90
2019-04-05T09:11:29.674Z,5.00
2019-04-05T09:13:59.954Z,4.90
2019-04-05T09:16:30.083Z,4.90
2019-04-05T09:19:00.153Z,4.90
2019-04-05T09:21:30.363Z,4.90
2019-04-05T09:24:00.202Z,4.90
2019-04-05T09:26:30.794Z,4.90
2019-04-05T09:29:00.646Z,4.70
2019-04-05T09:31:30.835Z,4.80
2019-04-05T09:34:01.185Z,4.80
2019-04-05T09:36:30.980Z,4.90
2019-04-05T09:39:02.158Z,4.90
2019-04-05T09:41:32.224Z,5.00
2019-04-05T09:44:02.098Z,5.00
2019-04-05T09:46:31.915Z,5.00
2019-04-05T09:49:02.909Z,5.10
2019-04-05T09:51:33.092Z,5.20
2019-04-05T09:54:03.354Z,5.10
2019-04-05T09:56:33.642Z,5.10
2019-04-05T09:59:03.920Z,5.10
2019-04-05T10:01:34.165Z,5.20
2019-04-05T10:04:04.500Z,5.20
2019-04-05T10:06:34.319Z,5.20
2019-04-05T10:09:06.178Z,5.30
2019-04-05T10:11:36.315Z,5.40
2019-04-05T10:14:07.074Z,5.40
2019-04-05T10:16:36.953Z,5.60
2019-04-05T10:19:06.782Z,5.80
2019-04-05T10:21:37.347Z,5.90
2019-04-05T10:24:07.751Z,5.90
2019-04-05T10:26:37.523Z,6.00
2019-04-05T10:29:07.783Z,6.10
2019-04-05T10:31:39.758Z,6.10
2019-04-05T10:34:09.601Z,6.10
2019-04-05T10:36:39.376Z,6.20
2019-04-05T10:39:10.274Z,6.30
2019-04-05T10:41:43.758Z,6.40
2019-04-05T10:44:15.571Z,6.40
2019-04-05T10:46:45.832Z,6.50
2019-04-05T10:49:15.814Z,6.60
2019-04-05T10:51:47.441Z,6.60
2019-04-05T10:54:19.450Z,6.80
2019-04-05T10:56:49.705Z,6.80
2019-04-05T10:59:19.659Z,7.00
2019-04-05T11:01:49.474Z,6.80
2019-04-05T11:04:19.321Z,6.50
2019-04-05T11:06:50.458Z,6.70
2019-04-05T11:09:20.885Z,6.60
2019-04-05T11:11:51.077Z,6.70
2019-04-05T11:14:21.293Z,6.80
2019-04-05T11:16:58.192Z,6.60
2019-04-05T11:19:23.754Z,6.80
2019-04-05T11:21:53.591Z,7.10
2019-04-05T11:24:23.768Z,7.20
2019-04-05T11:26:53.610Z,7.40
2019-04-05T11:29:23.401Z,7.50
2019-04-05T11:31:57.431Z,7.50
2019-04-05T11:34:26.647Z,7.60
2019-04-05T11:36:56.746Z,7.50
2019-04-05T11:39:27.451Z,7.50
2019-04-05T11:41:59.387Z,7.50
2019-04-05T11:44:30.132Z,7.50
2019-04-05T11:47:00.811Z,7.50
2019-04-05T11:49:33.485Z,7.50
2019-04-05T11:52:03.475Z,7.40
2019-04-05T11:54:33.714Z,7.30
2019-04-05T11:57:04.105Z,7.20
2019-04-05T11:59:34.794Z,7.20
2019-04-05T12:02:20.474Z,7.20
2019-04-05T12:04:50.279Z,7.10
2019-04-05T12:07:26.260Z,7.20
2019-04-05T12:09:53.630Z,7.40
2019-04-05T12:12:25.605Z,7.40
2019-04-05T12:14:55.509Z,7.40
2019-04-05T12:17:27.443Z,7.50
2019-04-05T12:19:57.838Z,7.70
2019-04-05T12:22:28.466Z,7.70
2019-04-05T12:25:00.531Z,7.60
2019-04-05T12:27:30.620Z,7.60
2019-04-05T12:30:00.584Z,7.70
2019-04-05T12:32:34.491Z,7.70
2019-04-05T12:35:02.738Z,7.70
2019-04-05T12:37:32.668Z,7.70
2019-04-05T12:40:05.028Z,7.60
2019-04-05T12:42:34.028Z,7.80
2019-04-05T12:45:04.458Z,7.90
2019-04-05T12:47:35.234Z,7.90
2019-04-05T12:50:06.256Z,7.80
2019-04-05T12:52:36.495Z,7.80
2019-04-05T12:55:07.648Z,7.90
2019-04-05T12:57:37.953Z,7.90
2019-04-05T13:00:13.178Z,8.00
2019-04-05T13:02:42.928Z,8.00
2019-04-05T13:05:14.215Z,8.10
2019-04-05T13:07:43.990Z,8.20
2019-04-05T13:10:15.401Z,8.30
2019-04-05T13:12:45.672Z,8.40
2019-04-05T13:15:18.521Z,8.30
2019-04-05T13:17:48.766Z,8.20
2019-04-05T13:20:21.857Z,8.10
2019-04-05T13:22:51.906Z,8.30
2019-04-05T13:25:23.074Z,8.40
2019-04-05T13:27:53.740Z,8.40
2019-04-05T13:30:23.562Z,8.50
2019-04-05T13:32:53.575Z,8.50
2019-04-05T13:35:23.870Z,8.60
2019-04-05T13:37:53.653Z,8.50
2019-04-05T13:40:23.934Z,8.50
2019-04-05T13:42:54.507Z,8.40
2019-04-05T13:45:24.345Z,8.10
2019-04-05T13:47:54.272Z,8.10
2019-04-05T13:50:24.463Z,8.20
2019-04-05T13:52:54.923Z,8.20
2019-04-05T13:55:24.703Z,8.40
2019-04-05T13:57:54.940Z,8.50
2019-04-05T14:00:25.417Z,8.50
2019-04-05T14:02:56.019Z,8.60
2019-04-05T14:05:26.130Z,8.70
2019-04-05T14:08:09.788Z,8.80
2019-04-05T14:10:28.122Z,8.80
2019-04-05T14:12:58.235Z,8.60
2019-04-05T14:15:31.191Z,8.60
2019-04-05T14:17:59.886Z,8.70
2019-04-05T14:20:29.671Z,8.70
2019-04-05T14:22:59.507Z,8.70
2019-04-05T14:25:30.277Z,8.80
2019-04-05T14:28:02.495Z,8.80
2019-04-05T14:30:33.718Z,8.80
2019-04-05T14:33:03.823Z,8.80
2019-04-05T14:35:33.962Z,8.80
2019-04-05T14:38:04.683Z,8.90
2019-04-05T14:40:34.531Z,8.90
2019-04-05T14:43:04.847Z,8.80
2019-04-05T14:45:34.691Z,8.90
2019-04-05T14:48:05.355Z,8.90
2019-04-05T14:50:35.250Z,9.00
2019-04-05T14:53:05.904Z,9.10
2019-04-05T14:55:35.768Z,9.10
2019-04-05T14:58:06.249Z,9.20
2019-04-05T15:00:47.158Z,9.20
2019-04-05T15:03:25.848Z,9.20
2019-04-05T15:05:58.182Z,9.30
2019-04-05T15:08:28.655Z,9.10
2019-04-05T15:11:01.924Z,9.20
2019-04-05T15:13:31.755Z,9.20
2019-04-05T15:16:02.568Z,9.20
2019-04-05T15:18:33.281Z,9.20
2019-04-05T15:21:05.844Z,9.20
2019-04-05T15:23:35.333Z,8.90
2019-04-05T15:26:05.384Z,9.00
2019-04-05T15:28:35.205Z,8.80
2019-04-05T15:31:05.544Z,8.60
2019-04-05T15:33:35.416Z,8.70
2019-04-05T15:36:05.653Z,8.80
2019-04-05T15:38:36.214Z,8.80
2019-04-05T15:41:06.091Z,8.80
2019-04-05T15:43:36.563Z,8.90
2019-04-05T15:46:06.879Z,9.00
2019-04-05T15:48:37.483Z,9.00
2019-04-05T15:51:08.100Z,8.60
2019-04-05T15:53:38.382Z,8.70
2019-04-05T15:56:08.530Z,8.80
2019-04-05T15:58:38.651Z,8.80
2019-04-05T16:01:09.689Z,8.90
2019-04-05T16:03:39.686Z,8.90
2019-04-05T16:06:10.038Z,8.90
2019-04-05T16:08:39.959Z,8.90
2019-04-05T16:11:09.758Z,8.80
2019-04-05T16:13:40.026Z,8.80
2019-04-05T16:16:09.838Z,8.70
2019-04-05T16:18:40.050Z,8.60
2019-04-05T16:21:11.091Z,8.40
2019-04-05T16:23:41.567Z,8.50
2019-04-05T16:26:11.943Z,8.50
2019-04-05T16:28:41.871Z,8.60
2019-04-05T16:31:12.098Z,8.50
2019-04-05T16:33:41.956Z,8.50
2019-04-05T16:36:11.762Z,8.50
2019-04-05T16:38:42.226Z,8.60
2019-04-05T16:41:12.511Z,8.60
2019-04-05T16:43:42.689Z,8.50
2019-04-05T16:46:13.247Z,8.60
2019-04-05T16:48:43.374Z,8.60
2019-04-05T16:51:13.633Z,8.60
2019-04-05T16:54:02.250Z,8.60
2019-04-05T16:56:32.920Z,8.60
2019-04-05T16:59:03.227Z,8.50
2019-04-05T17:01:33.169Z,8.40
2019-04-05T17:04:03.047Z,8.40
2019-04-05T17:06:33.386Z,8.30
2019-04-05T17:09:05.002Z,8.30
2019-04-05T17:11:34.826Z,8.20
2019-04-05T17:14:05.919Z,8.10
2019-04-05T17:16:35.767Z,8.10
2019-04-05T17:19:06.071Z,8.00
2019-04-05T17:21:36.303Z,8.00
2019-04-05T17:24:06.299Z,8.00
2019-04-05T17:26:36.444Z,7.90
2019-04-05T17:29:06.435Z,7.80
2019-04-05T17:31:36.231Z,7.80
2019-04-05T17:34:06.078Z,7.70
2019-04-05T17:36:36.850Z,7.60
2019-04-05T17:39:08.103Z,7.60
2019-04-05T17:41:38.267Z,7.50
2019-04-05T17:44:08.616Z,7.50
2019-04-05T17:46:38.478Z,7.40
2019-04-05T17:49:09.282Z,7.30
2019-04-05T17:51:39.638Z,7.30
2019-04-05T17:54:09.803Z,7.20
2019-04-05T17:56:40.718Z,7.10
2019-04-05T17:59:11.604Z,7.10
2019-04-05T18:01:41.497Z,7.10
2019-04-05T18:04:12.250Z,7.00
2019-04-05T18:06:42.056Z,7.00
2019-04-05T18:09:11.848Z,6.90
2019-04-05T18:11:42.754Z,6.80
2019-04-05T18:14:12.497Z,6.80
2019-04-05T18:16:43.198Z,6.70
2019-04-05T18:19:13.070Z,6.70
2019-04-05T18:21:43.279Z,6.60
2019-04-05T18:24:13.450Z,6.60
2019-04-05T18:26:43.747Z,6.60
2019-04-05T18:29:13.922Z,6.50
2019-04-05T18:31:43.898Z,6.50
2019-04-05T18:34:13.689Z,6.40
2019-04-05T18:36:43.731Z,6.30
2019-04-05T18:39:14.063Z,6.30
2019-04-05T18:41:44.343Z,6.20
2019-04-05T18:44:18.236Z,6.20
2019-04-05T18:46:50.724Z,6.10
2019-04-05T18:49:35.691Z,6.10
2019-04-05T18:52:14.909Z,6.00
2019-04-05T18:54:45.094Z,6.00
2019-04-05T18:57:15.723Z,6.00
2019-04-05T19:00:03.593Z,6.00
2019-04-05T19:02:38.888Z,6.00
2019-04-05T19:05:42.386Z,5.90
2019-04-05T19:08:22.118Z,5.90
2019-04-05T19:10:56.196Z,5.90
2019-04-05T19:13:29.794Z,5.90
2019-04-05T19:16:00.980Z,5.80
2019-04-05T19:18:31.776Z,5.70
2019-04-05T19:21:05.963Z,5.70
2019-04-05T19:23:51.192Z,5.60
2019-04-05T19:26:29.688Z,5.50
2019-04-05T19:29:01.246Z,5.50
2019-04-05T19:49:46.204Z,5.10
2019-04-05T19:52:17.385Z,5.10
2019-04-05T19:54:48.547Z,5.10
2019-04-05T19:57:19.839Z,5.00
2019-04-05T19:59:51.598Z,5.00
2019-04-05T20:02:21.446Z,4.90
2019-04-05T20:04:51.542Z,4.90
2019-04-05T20:07:23.606Z,4.80
2019-04-05T20:09:54.400Z,4.80
2019-04-05T20:12:24.680Z,4.70
2019-04-05T20:14:56.027Z,4.60
2019-04-05T20:17:28.616Z,4.70
2019-04-05T20:19:59.377Z,4.60
2019-04-05T20:22:30.254Z,4.50
2019-04-05T20:25:02.033Z,4.50
2019-04-05T20:27:34.194Z,4.50
2019-04-05T20:30:05.664Z,4.50
2019-04-05T20:32:36.951Z,4.50
2019-04-05T20:35:07.429Z,4.50
2019-04-05T20:37:40.054Z,4.50
2019-04-05T20:40:11.023Z,4.50
2019-04-05T20:42:42.843Z,4.40
2019-04-05T20:45:13.587Z,4.40
2019-04-05T20:47:44.391Z,4.40
2019-04-05T20:50:15.874Z,4.40
2019-04-05T20:52:46.041Z,4.50
2019-04-05T20:55:17.252Z,4.60
2019-04-05T20:57:48.272Z,4.70
2019-04-05T21:00:20.594Z,4.80
2019-04-05T21:02:56.176Z,4.80
2019-04-05T21:05:28.593Z,4.80
2019-04-05T21:08:00.266Z,4.90
2019-04-05T21:10:30.496Z,4.90
2019-04-05T21:13:02.153Z,5.00
2019-04-05T21:15:32.584Z,5.10
2019-04-05T21:18:02.839Z,5.10
2019-04-05T21:20:33.057Z,5.20
2019-04-05T21:23:04.186Z,5.20
2019-04-05T21:25:34.021Z,5.30
2019-04-05T21:28:03.934Z,5.30
2019-04-05T21:30:34.139Z,5.40
2019-04-05T21:33:04.571Z,5.40
2019-04-05T21:35:34.449Z,5.50
2019-04-05T21:38:04.455Z,5.60
2019-04-05T21:40:34.270Z,5.70
2019-04-05T21:43:04.674Z,5.80
2019-04-05T21:45:34.892Z,5.90
2019-04-05T21:48:05.776Z,6.00
2019-04-05T21:50:35.538Z,6.10
2019-04-05T21:53:05.338Z,6.10
2019-04-05T21:55:35.490Z,6.20
2019-04-05T21:58:05.322Z,6.30
2019-04-05T22:00:48.719Z,6.30
2019-04-05T22:03:18.844Z,6.30
2019-04-05T22:05:48.594Z,6.40
2019-04-05T22:08:18.994Z,6.40
2019-04-05T22:10:49.207Z,6.50
2019-04-05T22:13:19.961Z,6.50
2019-04-05T22:15:50.238Z,6.50
2019-04-05T22:18:20.370Z,6.50
2019-04-05T22:20:51.161Z,6.50
2019-04-05T22:23:20.983Z,6.50
2019-04-05T22:25:51.070Z,6.60
2019-04-05T22:28:21.286Z,6.60
2019-04-05T22:30:51.096Z,6.60
2019-04-05T22:33:20.875Z,6.60
2019-04-05T22:35:50.703Z,6.70
2019-04-05T22:38:20.963Z,6.70
2019-04-05T22:40:50.790Z,6.70
2019-04-05T22:43:20.971Z,6.70
2019-04-05T22:45:51.182Z,6.70
2019-04-05T22:48:21.826Z,6.70
2019-04-05T22:50:51.929Z,6.70
2019-04-05T22:53:22.647Z,6.60
2019-04-05T22:55:52.525Z,6.60
2019-04-05T22:58:23.559Z,6.60
2019-04-05T23:00:53.674Z,6.60
2019-04-05T23:03:24.599Z,6.60
2019-04-05T23:05:54.402Z,6.60
2019-04-05T23:08:24.214Z,6.60
2019-04-05T23:10:54.130Z,6.60
2019-04-05T23:13:23.948Z,6.60
2019-04-05T23:15:54.286Z,6.60
2019-04-05T23:18:24.556Z,6.60
2019-04-05T23:20:54.317Z,6.60
2019-04-05T23:23:25.016Z,6.60
2019-04-05T23:25:55.291Z,6.60
2019-04-05T23:28:25.785Z,6.60
2019-04-05T23:30:55.587Z,6.50
2019-04-05T23:33:25.358Z,6.50
2019-04-05T23:35:55.271Z,6.50
2019-04-05T23:38:25.974Z,6.40
2019-04-05T23:40:55.833Z,6.40
2019-04-05T23:43:26.108Z,6.50
2019-04-05T23:45:56.292Z,6.50
2019-04-05T23:48:26.516Z,6.50
2019-04-05T23:50:56.285Z,6.50
2019-04-05T23:53:27.290Z,6.50
2019-04-05T23:55:57.175Z,6.50
2019-04-05T23:58:27.817Z,6.50
